createdAt,value
2022-10-11T00:01:10.927Z,96547.50
2022-10-11T00:03:39.841Z,96544.66
2022-10-11T00:06:20.807Z,96557.22
2022-10-11T00:09:00.350Z,96545.56
2022-10-11T00:11:40.449Z,96540.03
2022-10-11T00:14:19.936Z,96544.13
2022-10-11T00:16:48.997Z,96543.47
2022-10-11T00:19:28.592Z,96535.13
2022-10-11T00:22:08.403Z,96533.06
2022-10-11T00:24:48.387Z,96541.38
2022-10-11T00:27:17.478Z,96537.44
2022-10-11T00:29:56.854Z,96539.13
2022-10-11T00:32:38.037Z,96532.63
2022-10-11T00:35:18.507Z,96540.47
2022-10-11T00:37:58.074Z,96545.13
2022-10-11T00:40:40.181Z,96532.81
2022-10-11T00:43:24.460Z,96524.78
2022-10-11T00:46:08.826Z,96536.56
2022-10-11T00:49:02.151Z,96544.34
2022-10-11T00:51:46.619Z,96541.19
2022-10-11T00:54:29.932Z,96548.63
2022-10-11T00:57:07.774Z,96538.25
2022-10-11T00:59:53.747Z,96547.03
2022-10-11T01:02:36.850Z,96543.00
2022-10-11T01:05:29.731Z,96555.28
2022-10-11T01:08:10.214Z,96542.06
2022-10-11T01:10:50.491Z,96554.78
2022-10-11T01:13:41.459Z,96557.72
2022-10-11T01:16:29.837Z,96563.53
2022-10-11T01:19:25.108Z,96558.97
2022-10-11T01:22:29.244Z,96557.53
2022-10-11T01:25:39.927Z,96561.78
2022-10-11T01:28:49.955Z,96557.53
2022-10-11T01:31:52.449Z,96558.16
2022-10-11T01:34:35.836Z,96548.44
2022-10-11T01:37:33.806Z,96558.81
2022-10-11T01:40:22.602Z,96563.53
2022-10-11T01:43:04.402Z,96564.44
2022-10-11T01:45:53.179Z,96566.03
2022-10-11T01:48:33.725Z,96550.53
2022-10-11T01:51:14.853Z,96563.94
2022-10-11T01:54:12.034Z,96565.84
2022-10-11T01:57:03.509Z,96566.19
2022-10-11T02:00:08.578Z,96565.25
2022-10-11T02:03:32.631Z,96572.19
2022-10-11T02:06:23.072Z,96560.25
2022-10-11T02:09:12.464Z,96566.16
2022-10-11T02:11:57.863Z,96577.13
2022-10-11T02:14:42.459Z,96572.66
2022-10-11T02:17:25.409Z,96572.75
2022-10-11T02:20:12.052Z,96568.22
2022-10-11T02:22:59.636Z,96570.50
2022-10-11T02:25:39.914Z,96579.97
2022-10-11T02:28:28.991Z,96572.44
2022-10-11T02:31:11.171Z,96575.31
2022-10-11T02:34:14.535Z,96579.56
2022-10-11T02:37:04.777Z,96576.00
2022-10-11T02:40:16.905Z,96575.56
2022-10-11T02:43:24.869Z,96576.56
2022-10-11T02:46:08.366Z,96572.50
2022-10-11T02:48:46.231Z,96575.91
2022-10-11T02:51:30.345Z,96574.09
2022-10-11T02:54:11.021Z,96572.44
2022-10-11T02:56:50.841Z,96566.69
2022-10-11T02:59:30.961Z,96564.47
2022-10-11T03:02:10.916Z,96570.38
2022-10-11T03:04:51.975Z,96557.69
2022-10-11T03:07:31.487Z,96565.50
2022-10-11T03:10:11.318Z,96565.84
2022-10-11T03:12:51.194Z,96561.00
2022-10-11T03:15:42.711Z,96557.75
2022-10-11T03:18:22.671Z,96545.25
2022-10-11T03:21:02.335Z,96552.53
2022-10-11T03:23:43.200Z,96555.25
2022-10-11T03:26:23.550Z,96557.53
2022-10-11T03:29:03.257Z,96555.66
2022-10-11T03:31:43.081Z,96556.22
2022-10-11T03:34:22.900Z,96557.69
2022-10-11T03:37:02.742Z,96547.16
2022-10-11T03:39:42.718Z,96549.25
2022-10-11T03:42:22.569Z,96547.03
2022-10-11T03:45:05.566Z,96552.63
2022-10-11T03:47:45.214Z,96554.78
2022-10-11T03:50:25.414Z,96557.19
2022-10-11T03:53:07.331Z,96550.97
2022-10-11T03:55:47.873Z,96538.88
2022-10-11T03:58:27.423Z,96535.50
2022-10-11T04:01:09.813Z,96537.97
2022-10-11T04:03:50.324Z,96554.97
2022-10-11T04:06:30.125Z,96547.13
2022-10-11T04:09:10.119Z,96540.88
2022-10-11T04:11:49.712Z,96545.56
2022-10-11T04:14:29.608Z,96538.84
2022-10-11T04:17:09.384Z,96528.34
2022-10-11T04:19:49.093Z,96539.06
2022-10-11T04:22:29.027Z,96546.34
2022-10-11T04:25:09.845Z,96539.94
2022-10-11T04:27:50.268Z,96534.59
2022-10-11T04:30:30.001Z,96550.22
2022-10-11T04:33:12.142Z,96542.75
2022-10-11T04:35:57.199Z,96542.16
2022-10-11T04:38:37.425Z,96544.09
2022-10-11T04:41:17.555Z,96554.06
2022-10-11T04:43:57.125Z,96547.81
2022-10-11T04:46:36.813Z,96547.00
2022-10-11T04:49:16.602Z,96540.19
2022-10-11T04:51:56.432Z,96539.94
2022-10-11T04:54:37.366Z,96534.38
2022-10-11T04:57:17.684Z,96549.09
2022-10-11T04:59:57.395Z,96530.31
2022-10-11T05:02:38.141Z,96534.78
2022-10-11T05:05:18.769Z,96534.34
2022-10-11T05:07:56.618Z,96529.53
2022-10-11T05:10:36.594Z,96521.03
2022-10-11T05:13:16.381Z,96516.72
2022-10-11T05:15:56.388Z,96524.72
2022-10-11T05:18:36.531Z,96516.31
2022-10-11T05:21:19.172Z,96520.56
2022-10-11T05:23:59.256Z,96522.41
2022-10-11T05:26:38.654Z,96516.59
2022-10-11T05:29:18.441Z,96512.00
2022-10-11T05:31:58.255Z,96511.22
2022-10-11T05:34:37.995Z,96513.78
2022-10-11T05:37:17.828Z,96507.28
2022-10-11T05:39:57.723Z,96504.22
2022-10-11T05:42:38.006Z,96497.28
2022-10-11T05:45:17.382Z,96505.69
2022-10-11T05:47:57.055Z,96497.31
2022-10-11T05:50:38.229Z,96504.59
2022-10-11T05:53:18.272Z,96493.28
2022-10-11T05:55:58.707Z,96498.28
2022-10-11T05:58:40.645Z,96493.81
2022-10-11T06:01:24.273Z,96495.28
2022-10-11T06:04:05.434Z,96494.84
2022-10-11T06:06:45.439Z,96489.38
2022-10-11T06:09:25.305Z,96498.75
2022-10-11T06:12:04.957Z,96493.09
2022-10-11T06:14:58.315Z,96479.84
2022-10-11T06:17:52.384Z,96484.06
2022-10-11T06:20:49.976Z,96477.91
2022-10-11T06:23:57.011Z,96477.91
2022-10-11T06:26:57.544Z,96477.00
2022-10-11T06:29:51.414Z,96471.66
2022-10-11T06:32:52.301Z,96469.66
2022-10-11T06:35:47.289Z,96472.94
2022-10-11T06:38:44.718Z,96482.41
2022-10-11T06:41:51.472Z,96474.75
2022-10-11T06:44:44.851Z,96464.75
2022-10-11T06:47:43.236Z,96475.28
2022-10-11T06:50:59.697Z,96464.88
2022-10-11T06:53:57.247Z,96476.09
2022-10-11T06:56:50.670Z,96462.56
2022-10-11T06:59:48.234Z,96457.16
2022-10-11T07:02:46.039Z,96458.44
2022-10-11T07:05:42.413Z,96454.31
2022-10-11T07:08:50.390Z,96454.50
2022-10-11T07:11:43.943Z,96451.72
2022-10-11T07:14:42.574Z,96450.50
2022-10-11T07:17:35.496Z,96454.59
2022-10-11T07:20:31.686Z,96453.22
2022-10-11T07:23:31.780Z,96455.69
2022-10-11T07:26:24.564Z,96444.09
2022-10-11T07:29:30.967Z,96447.31
2022-10-11T07:32:26.927Z,96443.84
2022-10-11T07:35:23.407Z,96449.47
2022-10-11T07:38:20.688Z,96443.91
2022-10-11T07:41:18.085Z,96438.81
2022-10-11T07:44:15.735Z,96451.03
2022-10-11T07:47:12.505Z,96434.72
2022-10-11T07:50:09.417Z,96441.03
2022-10-11T07:53:21.085Z,96438.41
2022-10-11T07:56:25.820Z,96443.13
2022-10-11T07:59:31.147Z,96431.81
2022-10-11T08:02:24.439Z,96433.31
2022-10-11T08:05:34.561Z,96416.97
2022-10-11T08:08:31.989Z,96429.00
2022-10-11T08:11:34.558Z,96427.06
2022-10-11T08:14:42.754Z,96429.88
2022-10-11T08:17:36.533Z,96424.16
2022-10-11T08:20:34.082Z,96413.63
2022-10-11T08:23:31.469Z,96413.09
2022-10-11T08:26:25.930Z,96417.38
2022-10-11T08:29:31.502Z,96401.25
2022-10-11T08:32:27.883Z,96410.34
2022-10-11T08:35:32.669Z,96396.84
2022-10-11T08:38:30.126Z,96410.97
2022-10-11T08:41:30.233Z,96403.66
2022-10-11T08:45:10.446Z,96398.19
2022-10-11T08:47:47.663Z,96401.47
2022-10-11T08:50:44.403Z,96394.41
2022-10-11T08:54:01.347Z,96394.22
2022-10-11T08:56:36.772Z,96397.47
2022-10-11T08:59:21.712Z,96399.06
2022-10-11T09:01:59.100Z,96383.00
2022-10-11T09:04:40.200Z,96385.97
2022-10-11T09:07:23.970Z,96385.22
2022-10-11T09:10:14.690Z,96376.28
2022-10-11T09:13:04.908Z,96383.78
2022-10-11T09:16:13.196Z,96387.00
2022-10-11T09:18:57.058Z,96379.53
2022-10-11T09:22:02.654Z,96375.59
2022-10-11T09:25:00.271Z,96376.72
2022-10-11T09:28:02.789Z,96370.13
2022-10-11T09:30:34.062Z,96373.94
2022-10-11T09:33:14.518Z,96378.97
2022-10-11T09:35:52.350Z,96374.16
2022-10-11T09:38:47.443Z,96387.22
2022-10-11T09:41:22.591Z,96371.28
2022-10-11T09:43:53.252Z,96371.28
2022-10-11T09:46:31.507Z,96376.59
2022-10-11T09:49:04.408Z,96378.25
2022-10-11T09:51:34.185Z,96369.63
2022-10-11T09:54:05.935Z,96371.09
2022-10-11T09:56:41.089Z,96367.16
2022-10-11T09:59:25.724Z,96367.81
2022-10-11T10:02:14.929Z,96366.38
2022-10-11T10:05:15.356Z,96366.38
2022-10-11T10:08:05.498Z,96359.59
2022-10-11T10:10:34.726Z,96357.34
2022-10-11T10:13:06.962Z,96350.22
2022-10-11T10:15:37.879Z,96354.28
2022-10-11T10:18:11.077Z,96354.84
2022-10-11T10:20:55.009Z,96351.50
2022-10-11T10:23:38.163Z,96357.75
2022-10-11T10:26:11.545Z,96351.94
2022-10-11T10:28:54.483Z,96345.50
2022-10-11T10:31:25.793Z,96347.03
2022-10-11T10:33:55.783Z,96346.25
2022-10-11T10:36:30.641Z,96343.91
2022-10-11T10:39:26.427Z,96348.16
2022-10-11T10:41:56.827Z,96341.56
2022-10-11T10:44:25.782Z,96332.72
2022-10-11T10:47:16.243Z,96326.72
2022-10-11T10:49:56.364Z,96338.09
2022-10-11T10:52:25.511Z,96337.31
2022-10-11T10:55:13.541Z,96338.00
2022-10-11T10:57:48.034Z,96334.50
2022-10-11T11:00:20.752Z,96324.03
2022-10-11T11:03:07.627Z,96332.97
2022-10-11T11:05:39.406Z,96328.81
2022-10-11T11:08:34.424Z,96324.47
2022-10-11T11:11:20.847Z,96327.81
2022-10-11T11:14:08.244Z,96318.41
2022-10-11T11:16:51.344Z,96325.22
2022-10-11T11:19:43.401Z,96321.00
2022-10-11T11:22:14.986Z,96319.84
2022-10-11T11:25:20.989Z,96317.50
2022-10-11T11:28:12.303Z,96321.31
2022-10-11T11:31:28.981Z,96321.63
2022-10-11T11:34:17.905Z,96316.59
2022-10-11T11:37:11.139Z,96324.31
2022-10-11T11:39:53.667Z,96313.59
2022-10-11T11:42:45.820Z,96306.69
2022-10-11T11:45:29.038Z,96316.75
2022-10-11T11:48:06.239Z,96314.50
2022-10-11T11:50:42.760Z,96317.63
2022-10-11T11:53:19.973Z,96315.41
2022-10-11T11:55:53.376Z,96322.00
2022-10-11T11:58:49.933Z,96313.84
2022-10-11T12:01:19.159Z,96308.59
2022-10-11T12:03:52.338Z,96307.25
2022-10-11T12:06:26.972Z,96313.53
2022-10-11T12:09:28.262Z,96304.38
2022-10-11T12:12:03.441Z,96301.03
2022-10-11T12:14:39.337Z,96299.13
2022-10-11T12:17:24.337Z,96289.97
2022-10-11T12:20:15.221Z,96288.88
2022-10-11T12:22:50.413Z,96285.06
2022-10-11T12:25:35.838Z,96271.44
2022-10-11T12:28:39.801Z,96279.81
2022-10-11T12:31:24.603Z,96277.59
2022-10-11T12:34:17.960Z,96273.34
2022-10-11T12:36:51.490Z,96268.34
2022-10-11T12:39:20.298Z,96266.56
2022-10-11T12:41:49.576Z,96272.81
2022-10-11T12:44:24.784Z,96262.44
2022-10-11T12:46:59.618Z,96269.78
2022-10-11T12:49:38.457Z,96260.97
2022-10-11T12:52:38.010Z,96264.44
2022-10-11T12:55:46.531Z,96259.97
2022-10-11T12:58:47.308Z,96254.94
2022-10-11T13:01:23.338Z,96254.94
2022-10-11T13:04:00.001Z,96246.44
2022-10-11T13:06:38.934Z,96251.94
2022-10-11T13:09:11.042Z,96244.78
2022-10-11T13:11:47.142Z,96235.50
2022-10-11T13:14:23.708Z,96239.09
2022-10-11T13:17:04.557Z,96223.00
2022-10-11T13:22:24.576Z,96225.91
2022-10-11T13:24:58.638Z,96226.00
2022-10-11T13:27:28.925Z,96235.63
2022-10-11T13:30:04.784Z,96234.81
2022-10-11T13:32:34.460Z,96231.38
2022-10-11T13:35:15.114Z,96227.59
2022-10-11T13:37:47.420Z,96232.63
2022-10-11T13:40:19.215Z,96219.75
2022-10-11T13:42:50.847Z,96226.47
2022-10-11T13:45:23.751Z,96218.19
2022-10-11T13:47:55.167Z,96224.78
2022-10-11T13:50:31.215Z,96214.84
2022-10-11T13:53:09.091Z,96221.00
2022-10-11T13:55:59.965Z,96216.41
2022-10-11T13:58:33.354Z,96206.78
2022-10-11T14:01:26.099Z,96208.94
2022-10-11T14:04:04.535Z,96213.38
2022-10-11T14:06:53.519Z,96205.91
2022-10-11T14:09:34.673Z,96209.47
2022-10-11T14:12:44.934Z,96191.50
2022-10-11T14:15:31.619Z,96207.59
2022-10-11T14:18:02.524Z,96195.41
2022-10-11T14:20:40.757Z,96189.94
2022-10-11T14:23:09.618Z,96199.34
2022-10-11T14:25:38.447Z,96201.22
2022-10-11T14:28:13.755Z,96181.03
2022-10-11T14:30:43.665Z,96196.75
2022-10-11T14:33:12.548Z,96186.59
2022-10-11T14:35:43.856Z,96196.75
2022-10-11T14:38:13.023Z,96186.34
2022-10-11T14:40:42.243Z,96184.47
2022-10-11T14:43:11.338Z,96184.91
2022-10-11T14:45:40.106Z,96166.03
2022-10-11T14:48:09.058Z,96175.75
2022-10-11T14:50:49.966Z,96183.34
2022-10-11T14:53:19.039Z,96164.47
2022-10-11T14:55:48.805Z,96177.34
2022-10-11T14:58:18.604Z,96177.44
2022-10-11T15:00:48.644Z,96168.50
2022-10-11T15:03:17.518Z,96173.09
2022-10-11T15:05:46.514Z,96176.47
2022-10-11T15:08:15.782Z,96170.19
2022-10-11T15:10:44.654Z,96173.78
2022-10-11T15:13:13.568Z,96175.31
2022-10-11T15:15:43.383Z,96163.38
2022-10-11T15:18:17.166Z,96162.44
2022-10-11T15:20:47.130Z,96155.88
2022-10-11T15:23:15.970Z,96157.78
2022-10-11T15:25:44.778Z,96155.09
2022-10-11T15:28:24.954Z,96138.47
2022-10-11T15:30:55.106Z,96143.38
2022-10-11T15:33:24.732Z,96145.84
2022-10-11T15:35:53.918Z,96143.84
2022-10-11T15:38:25.456Z,96133.88
2022-10-11T15:40:55.191Z,96129.31
2022-10-11T15:43:25.145Z,96131.66
2022-10-11T15:45:58.008Z,96125.50
2022-10-11T15:48:28.439Z,96130.88
2022-10-11T15:50:57.455Z,96122.41
2022-10-11T15:53:31.728Z,96125.75
2022-10-11T15:56:05.332Z,96118.50
2022-10-11T15:58:40.689Z,96121.41
2022-10-11T16:01:21.797Z,96114.59
2022-10-11T16:03:51.530Z,96116.72
2022-10-11T16:06:20.568Z,96115.06
2022-10-11T16:08:49.487Z,96102.44
2022-10-11T16:11:18.523Z,96093.84
2022-10-11T16:13:48.195Z,96099.22
2022-10-11T16:16:17.045Z,96096.19
2022-10-11T16:18:45.904Z,96093.41
2022-10-11T16:21:16.120Z,96084.13
2022-10-11T16:23:45.341Z,96088.84
2022-10-11T16:26:16.950Z,96090.72
2022-10-11T16:28:45.861Z,96082.16
2022-10-11T16:31:18.708Z,96082.94
2022-10-11T16:33:48.439Z,96086.50
2022-10-11T16:36:33.096Z,96071.44
2022-10-11T16:39:06.011Z,96071.44
2022-10-11T16:41:35.039Z,96066.88
2022-10-11T16:44:04.503Z,96067.97
2022-10-11T16:46:33.892Z,96072.53
2022-10-11T16:49:03.333Z,96067.19
2022-10-11T16:51:32.273Z,96063.06
2022-10-11T16:54:01.747Z,96064.28
2022-10-11T16:56:30.848Z,96063.28
2022-10-11T16:58:59.746Z,96065.16
2022-10-11T17:01:30.555Z,96072.84
2022-10-11T17:03:59.950Z,96066.38
2022-10-11T17:06:29.165Z,96068.53
2022-10-11T17:08:58.292Z,96071.31
2022-10-11T17:11:27.274Z,96069.06
2022-10-11T17:13:56.541Z,96039.97
2022-10-11T17:16:25.563Z,96067.94
2022-10-11T17:18:54.457Z,96050.19
2022-10-11T17:21:23.634Z,96053.13
2022-10-11T17:23:52.753Z,96058.91
2022-10-11T17:26:27.202Z,96049.66
2022-10-11T17:28:58.995Z,96055.81
2022-10-11T17:31:29.124Z,96048.88
2022-10-11T17:34:01.850Z,96049.66
2022-10-11T17:36:35.151Z,96048.44
2022-10-11T17:39:12.889Z,96047.31
2022-10-11T17:41:42.751Z,96043.06
2022-10-11T17:44:12.444Z,96040.75
2022-10-11T17:46:41.785Z,96049.66
2022-10-11T17:49:12.395Z,96044.31
2022-10-11T17:51:42.037Z,96043.19
2022-10-11T17:54:13.901Z,96047.09
2022-10-11T17:56:43.042Z,96041.28
2022-10-11T17:59:21.956Z,96052.75
2022-10-11T18:01:52.073Z,96044.38
2022-10-11T18:04:22.409Z,96038.34
2022-10-11T18:06:51.265Z,96051.06
2022-10-11T18:09:21.121Z,96053.06
2022-10-11T18:11:50.719Z,96057.31
2022-10-11T18:14:20.025Z,96036.41
2022-10-11T18:16:48.977Z,96042.78
2022-10-11T18:19:17.853Z,96045.03
2022-10-11T18:21:46.791Z,96050.16
2022-10-11T18:24:17.367Z,96050.47
2022-10-11T18:26:47.276Z,96048.94
2022-10-11T18:29:16.781Z,96060.75
2022-10-11T18:31:45.806Z,96053.28
2022-10-11T18:34:16.339Z,96052.19
2022-10-11T18:36:45.263Z,96057.09
2022-10-11T18:39:15.351Z,96052.41
2022-10-11T18:41:45.005Z,96042.03
2022-10-11T18:44:15.887Z,96041.16
2022-10-11T18:46:45.829Z,96054.66
2022-10-11T18:49:14.895Z,96047.28
2022-10-11T18:51:45.626Z,96048.75
2022-10-11T18:54:18.431Z,96051.00
2022-10-11T18:56:50.329Z,96045.53
2022-10-11T18:59:19.205Z,96034.72
2022-10-11T19:01:52.689Z,96040.84
2022-10-11T19:04:21.855Z,96029.94
2022-10-11T19:06:51.249Z,96035.19
2022-10-11T19:09:23.141Z,96029.72
2022-10-11T19:11:54.156Z,96031.09
2022-10-11T19:14:28.947Z,96029.16
2022-10-11T19:16:58.726Z,96026.72
2022-10-11T19:19:29.037Z,96018.50
2022-10-11T19:21:58.059Z,96021.84
2022-10-11T19:24:28.905Z,96017.94
2022-10-11T19:27:02.525Z,96007.56
2022-10-11T19:29:32.307Z,96025.50
2022-10-11T19:32:04.170Z,96027.31
2022-10-11T19:34:33.275Z,96027.22
2022-10-11T19:37:03.795Z,96022.41
2022-10-11T19:39:32.790Z,96009.59
2022-10-11T19:42:01.894Z,96032.34
2022-10-11T19:44:33.406Z,96014.75
2022-10-11T19:47:05.504Z,96023.75
2022-10-11T19:49:34.712Z,96016.97
2022-10-11T19:52:03.565Z,96010.84
2022-10-11T19:54:32.635Z,96022.53
2022-10-11T19:57:01.415Z,96019.28
2022-10-11T19:59:30.351Z,96018.59
2022-10-11T20:01:59.752Z,96012.38
2022-10-11T20:07:18.295Z,96000.09
2022-10-11T20:09:47.094Z,95995.63
2022-10-11T20:12:15.982Z,96002.06
2022-10-11T20:14:44.868Z,96000.38
2022-10-11T20:17:13.758Z,96004.25
2022-10-11T20:19:42.746Z,95996.78
2022-10-11T20:22:11.686Z,95997.31
2022-10-11T20:24:40.506Z,95997.97
2022-10-11T20:27:09.372Z,95984.38
2022-10-11T20:29:38.383Z,95989.25
2022-10-11T20:32:07.169Z,95997.59
2022-10-11T20:34:39.968Z,95998.38
2022-10-11T20:37:08.873Z,95997.78
2022-10-11T20:39:37.643Z,95992.44
2022-10-11T20:42:06.464Z,95991.22
2022-10-11T20:44:35.483Z,95994.22
2022-10-11T20:47:04.473Z,95998.78
2022-10-11T20:49:33.514Z,95987.63
2022-10-11T20:52:02.348Z,95987.63
2022-10-11T20:54:31.485Z,95972.13
2022-10-11T20:57:00.872Z,95990.97
2022-10-11T20:59:29.708Z,95980.94
2022-10-11T21:01:59.301Z,95990.53
2022-10-11T21:04:28.386Z,95991.28
2022-10-11T21:06:57.191Z,96000.06
2022-10-11T21:09:26.632Z,95995.19
2022-10-11T21:11:55.471Z,95998.31
2022-10-11T21:14:24.391Z,95991.88
2022-10-11T21:16:53.254Z,95984.19
2022-10-11T21:19:22.072Z,95984.63
2022-10-11T21:21:53.657Z,95984.91
2022-10-11T21:24:23.350Z,95996.34
2022-10-11T21:26:54.047Z,95983.34
2022-10-11T21:29:25.806Z,96002.28
2022-10-11T21:31:54.734Z,95987.38
2022-10-11T21:34:23.613Z,95988.47
2022-10-11T21:36:52.496Z,95987.03
2022-10-11T21:39:21.423Z,95991.72
2022-10-11T21:41:50.231Z,96000.31
2022-10-11T21:44:19.075Z,95995.09
2022-10-11T21:47:05.962Z,95996.34
2022-10-11T21:49:35.185Z,95993.44
2022-10-11T21:52:04.668Z,95998.47
2022-10-11T21:54:33.477Z,96000.91
2022-10-11T21:57:02.329Z,95984.31
2022-10-11T21:59:31.110Z,95992.91
2022-10-11T22:02:02.080Z,96001.19
2022-10-11T22:04:31.412Z,95995.81
2022-10-11T22:07:00.376Z,95998.41
2022-10-11T22:09:30.403Z,95994.16
2022-10-11T22:11:59.227Z,96001.53
2022-10-11T22:14:28.948Z,95992.50
2022-10-11T22:16:58.258Z,95996.84
2022-10-11T22:19:27.072Z,95998.41
2022-10-11T22:21:55.936Z,95998.88
2022-10-11T22:24:24.709Z,96009.34
2022-10-11T22:26:53.559Z,96011.72
2022-10-11T22:29:22.439Z,96002.44
2022-10-11T22:31:51.292Z,96006.56
2022-10-11T22:34:20.155Z,96010.13
2022-10-11T22:36:48.999Z,95998.34
2022-10-11T22:39:17.845Z,96000.69
2022-10-11T22:41:46.735Z,95994.53
2022-10-11T22:44:15.744Z,96003.91
2022-10-11T22:46:44.515Z,95998.22
2022-10-11T22:49:13.595Z,95998.66
2022-10-11T22:51:42.359Z,95995.88
2022-10-11T22:54:12.101Z,96008.59
2022-10-11T22:56:40.977Z,96015.16
2022-10-11T22:59:10.135Z,96018.72
2022-10-11T23:01:39.569Z,96007.69
2022-10-11T23:04:08.937Z,96014.16
2022-10-11T23:06:37.920Z,96014.16
2022-10-11T23:09:06.799Z,96007.25
2022-10-11T23:11:35.613Z,96019.84
2022-10-11T23:14:04.578Z,96016.81
2022-10-11T23:16:33.427Z,96013.84
2022-10-11T23:19:02.229Z,96021.53
2022-10-11T23:21:31.070Z,96019.28
2022-10-11T23:24:00.015Z,96014.75
2022-10-11T23:26:28.848Z,96021.63
2022-10-11T23:28:58.183Z,96016.19
2022-10-11T23:31:27.013Z,96022.75
2022-10-11T23:33:55.837Z,96032.44
2022-10-11T23:36:26.745Z,96024.09
2022-10-11T23:38:58.440Z,96010.72
2022-10-11T23:41:30.040Z,96014.16
2022-10-11T23:43:59.299Z,96014.50
2022-10-11T23:46:28.196Z,96020.31
2022-10-11T23:48:57.123Z,96028.66
2022-10-11T23:51:25.943Z,96025.53
2022-10-11T23:53:55.009Z,96026.63
2022-10-11T23:56:23.943Z,96029.31
2022-10-11T23:58:52.804Z,96024.31
